createdAt,value
2023-06-09T09:56:03.067Z,101595.00
2023-06-09T09:58:39.261Z,101630.00
2023-06-09T10:01:09.682Z,101618.00
2023-06-09T10:03:45.246Z,101614.00
2023-06-09T10:06:15.588Z,101600.00
2023-06-09T10:08:45.981Z,101597.00
2023-06-09T10:11:14.160Z,101603.00
2023-06-09T10:16:30.215Z,101605.00
2023-06-09T10:19:00.227Z,101593.00
2023-06-09T10:21:27.660Z,101588.00
2023-06-09T10:23:55.393Z,101608.00
2023-06-09T10:26:23.519Z,101581.00
2023-06-09T10:29:02.016Z,101597.00
2023-06-09T10:31:36.354Z,101595.00
2023-06-09T10:34:21.019Z,101594.00
2023-06-09T10:36:48.226Z,101591.00
2023-06-09T10:39:29.757Z,101568.00
2023-06-09T10:42:22.378Z,101557.00
2023-06-09T10:45:04.328Z,101570.00
2023-06-09T10:47:48.972Z,101562.00
2023-06-09T10:53:21.861Z,101578.00
2023-06-09T10:55:49.113Z,101586.00
2023-06-09T10:58:38.406Z,101586.00
2023-06-09T11:01:08.889Z,101591.00
2023-06-09T11:03:56.625Z,101579.00
2023-06-09T11:06:24.128Z,101577.00
2023-06-09T11:09:22.970Z,101570.00
2023-06-09T11:11:51.787Z,101587.00
2023-06-09T11:15:01.846Z,101579.00
2023-06-09T11:17:41.613Z,101585.00
2023-06-09T11:21:14.805Z,101564.00
2023-06-09T11:26:43.278Z,101536.00
2023-06-09T11:29:18.912Z,101517.00
2023-06-09T11:31:49.787Z,101526.00
2023-06-09T11:34:49.383Z,101537.00
2023-06-09T11:37:18.185Z,101523.00
2023-06-09T11:39:45.276Z,101530.00
2023-06-09T11:42:12.198Z,101519.00
2023-06-09T11:44:39.084Z,101517.00
2023-06-09T11:47:26.769Z,101507.00
2023-06-09T11:50:00.481Z,101511.00
2023-06-09T11:52:27.367Z,101516.00
2023-06-09T11:54:54.318Z,101518.00
2023-06-09T11:57:22.845Z,101519.00
2023-06-09T11:59:49.931Z,101522.00
2023-06-09T12:02:18.082Z,101522.00
2023-06-09T12:04:46.910Z,101512.00
2023-06-09T12:07:16.085Z,101530.00
2023-06-09T12:09:43.897Z,101520.00
2023-06-09T12:12:14.033Z,101528.00
2023-06-09T12:14:44.177Z,101525.00
2023-06-09T12:17:11.216Z,101532.00
2023-06-09T12:19:38.162Z,101525.00
2023-06-09T12:22:05.516Z,101538.00
2023-06-09T12:24:32.877Z,101543.00
2023-06-09T12:27:11.482Z,101550.00
2023-06-09T12:29:42.325Z,101539.00
2023-06-09T12:32:10.611Z,101555.00
2023-06-09T12:34:37.877Z,101548.00
2023-06-09T12:37:05.876Z,101566.00
2023-06-09T12:39:34.210Z,101558.00
2023-06-09T12:42:14.114Z,101545.00
2023-06-09T12:44:41.270Z,101559.00
2023-06-09T12:47:15.844Z,101555.00
2023-06-09T12:49:44.780Z,101543.00
2023-06-09T12:52:11.771Z,101529.00
2023-06-09T12:54:38.856Z,101553.00
2023-06-09T18:56:48.589Z,101533.00
2023-06-09T18:59:16.076Z,101541.00
2023-06-09T19:01:43.389Z,101533.00
2023-06-09T19:04:11.211Z,101535.00
2023-06-09T19:06:43.920Z,101539.00
2023-06-09T19:09:10.827Z,101546.00
2023-06-09T19:11:38.028Z,101540.00
2023-06-09T19:14:08.057Z,101537.00
2023-06-09T19:16:37.943Z,101543.00
2023-06-09T19:19:05.295Z,101538.00
2023-06-09T19:21:32.158Z,101549.00
2023-06-09T19:23:59.317Z,101545.00
2023-06-09T19:26:27.058Z,101547.00
2023-06-09T19:29:00.152Z,101544.00
2023-06-09T19:31:27.114Z,101552.00
2023-06-09T19:33:54.174Z,101553.00
2023-06-09T19:36:21.050Z,101556.00
2023-06-09T19:38:47.895Z,101552.00
2023-06-09T19:41:14.778Z,101563.00
2023-06-09T19:43:41.721Z,101562.00
2023-06-09T19:46:08.839Z,101563.00
2023-06-09T19:48:35.722Z,101562.00
2023-06-09T19:51:02.877Z,101557.00
2023-06-09T19:53:29.766Z,101568.00
2023-06-09T19:55:56.663Z,101565.00
2023-06-09T19:58:23.577Z,101568.00
2023-06-09T20:00:50.584Z,101576.00
2023-06-09T20:03:22.040Z,101574.00
2023-06-09T20:05:49.154Z,101567.00
2023-06-09T20:08:16.015Z,101577.00
2023-06-09T20:10:49.033Z,101569.00
2023-06-09T20:13:16.959Z,101567.00
2023-06-09T20:18:28.666Z,101575.00
2023-06-09T20:21:00.758Z,101577.00
2023-06-09T20:26:54.951Z,101583.00
2023-06-09T20:29:21.970Z,101589.00
2023-06-09T20:35:41.106Z,101579.00
2023-06-09T20:38:17.721Z,101584.00
2023-06-09T20:40:45.915Z,101590.00
2023-06-09T20:43:18.716Z,101600.00
2023-06-09T20:45:48.816Z,101591.00
2023-06-09T20:48:20.027Z,101593.00
2023-06-09T20:50:47.132Z,101598.00
2023-06-09T20:53:17.146Z,101588.00
2023-06-09T23:15:12.496Z,101624.00
2023-06-09T23:17:41.039Z,101619.00
2023-06-09T23:20:10.640Z,101622.00
2023-06-09T23:22:44.315Z,101628.00
2023-06-09T23:25:13.095Z,101624.00
2023-06-09T23:27:42.686Z,101620.00
2023-06-09T23:30:11.668Z,101625.00
2023-06-09T23:32:39.816Z,101626.00
2023-06-09T23:35:08.060Z,101622.00
2023-06-09T23:37:38.026Z,101629.00
2023-06-09T23:40:11.220Z,101622.00
2023-06-09T23:42:39.689Z,101623.00
2023-06-09T23:45:07.793Z,101619.00
2023-06-09T23:47:36.674Z,101623.00
2023-06-09T23:50:04.452Z,101624.00
2023-06-09T23:52:33.447Z,101629.00
2023-06-09T23:55:00.613Z,101617.00
2023-06-09T23:57:27.536Z,101612.00
2023-06-09T23:59:55.758Z,101626.00
